createdAt,value
2023-05-15T00:01:47.506Z,99.90
2023-05-15T00:06:53.026Z,99.90
2023-05-15T00:11:58.759Z,99.90
2023-05-15T00:17:04.597Z,99.90
2023-05-15T00:22:09.933Z,99.90
2023-05-15T00:27:15.217Z,99.90
2023-05-15T00:32:20.845Z,99.90
2023-05-15T00:37:26.505Z,99.90
2023-05-15T00:42:32.656Z,99.90
2023-05-15T00:47:38.531Z,99.90
2023-05-15T00:52:45.132Z,99.90
2023-05-15T00:57:51.481Z,99.90
2023-05-15T01:02:57.484Z,99.90
2023-05-15T01:08:29.854Z,99.90
2023-05-15T01:13:38.416Z,99.90
2023-05-15T01:18:44.499Z,99.90
2023-05-15T01:24:26.575Z,99.90
2023-05-15T01:29:46.703Z,99.90
2023-05-15T01:34:53.631Z,99.90
2023-05-15T01:40:06.286Z,99.90
2023-05-15T01:45:20.113Z,99.90
2023-05-15T01:50:29.091Z,99.90
2023-05-15T01:55:36.101Z,99.90
2023-05-15T02:00:42.852Z,99.90
2023-05-15T02:05:49.382Z,99.90
2023-05-15T02:10:55.366Z,99.90
2023-05-15T02:16:00.427Z,99.90
2023-05-15T02:21:09.697Z,99.90
2023-05-15T02:26:24.633Z,99.90
2023-05-15T02:31:47.981Z,99.80
2023-05-15T02:36:55.365Z,98.30
2023-05-15T02:42:02.737Z,99.30
2023-05-15T02:47:09.269Z,98.70
2023-05-15T02:52:15.018Z,98.30
2023-05-15T02:57:20.918Z,98.20
2023-05-15T03:02:26.491Z,98.30
2023-05-15T03:07:31.945Z,97.60
2023-05-15T03:12:37.819Z,98.60
2023-05-15T03:17:46.023Z,96.60
2023-05-15T03:22:51.789Z,97.20
2023-05-15T03:27:59.938Z,97.90
2023-05-15T03:33:05.679Z,98.00
2023-05-15T03:38:11.806Z,97.60
2023-05-15T03:43:18.786Z,97.60
2023-05-15T03:48:26.909Z,98.20
2023-05-15T03:53:33.145Z,98.30
2023-05-15T03:58:38.513Z,97.80
2023-05-15T04:03:44.373Z,98.20
2023-05-15T04:08:49.462Z,98.30
2023-05-15T04:13:55.180Z,97.80
2023-05-15T04:19:01.298Z,96.90
2023-05-15T04:24:07.132Z,97.70
2023-05-15T04:29:13.023Z,97.60
2023-05-15T04:34:18.610Z,98.30
2023-05-15T04:39:23.907Z,98.60
2023-05-15T04:44:29.559Z,97.30
2023-05-15T04:49:35.417Z,95.30
2023-05-15T04:54:40.607Z,96.10
2023-05-15T04:59:46.283Z,94.90
2023-05-15T05:04:52.041Z,92.50
2023-05-15T05:09:57.288Z,91.40
2023-05-15T05:15:02.871Z,86.60
2023-05-15T05:20:13.116Z,77.40
2023-05-15T05:25:22.152Z,75.30
2023-05-15T05:30:27.796Z,75.90
2023-05-15T05:35:33.704Z,79.00
2023-05-15T05:40:39.615Z,76.40
2023-05-15T05:45:44.650Z,80.70
2023-05-15T05:50:50.360Z,82.10
2023-05-15T05:56:40.273Z,84.50
2023-05-15T06:01:55.295Z,84.10
2023-05-15T06:07:07.792Z,83.30
2023-05-15T06:12:23.183Z,80.10
2023-05-15T06:17:28.641Z,76.50
2023-05-15T06:22:34.844Z,67.10
2023-05-15T06:27:40.735Z,67.90
2023-05-15T06:32:45.855Z,68.80
2023-05-15T06:37:51.838Z,69.80
2023-05-15T06:42:59.864Z,71.50
2023-05-15T06:48:06.208Z,75.40
2023-05-15T06:53:13.073Z,75.00
2023-05-15T06:58:20.421Z,66.50
2023-05-15T07:15:51.876Z,70.10
2023-05-15T07:20:57.460Z,62.20
2023-05-15T07:26:02.771Z,62.10
2023-05-15T07:31:11.711Z,61.10
2023-05-15T07:36:17.385Z,61.00
2023-05-15T07:41:23.408Z,65.30
2023-05-15T07:46:29.037Z,73.50
2023-05-15T07:51:36.019Z,76.90
2023-05-15T07:56:42.878Z,78.70
2023-05-15T08:01:48.468Z,78.50
2023-05-15T08:06:53.940Z,73.90
2023-05-15T08:12:18.149Z,75.80
2023-05-15T08:17:24.802Z,73.90
2023-05-15T08:22:31.833Z,75.80
2023-05-15T08:27:37.439Z,80.30
2023-05-15T08:32:44.870Z,82.10
2023-05-15T08:45:03.150Z,81.50
2023-05-15T08:50:17.868Z,86.10
2023-05-15T08:55:27.490Z,90.20
2023-05-15T09:00:43.503Z,91.30
2023-05-15T09:11:31.256Z,92.90
2023-05-15T09:24:40.332Z,96.30
2023-05-15T09:29:49.786Z,96.50
2023-05-15T09:34:57.666Z,96.50
2023-05-15T09:40:15.804Z,96.80
2023-05-15T09:45:21.931Z,97.10
2023-05-15T09:51:07.121Z,98.20
2023-05-15T09:56:13.306Z,99.90
2023-05-15T10:01:23.302Z,99.60
2023-05-15T10:06:30.153Z,99.90
2023-05-15T10:11:40.608Z,99.90
2023-05-15T10:16:46.986Z,99.90
2023-05-15T10:21:54.218Z,99.90
2023-05-15T10:27:00.675Z,99.90
2023-05-15T10:32:07.095Z,99.90
2023-05-15T10:37:14.454Z,99.90
2023-05-15T10:42:20.172Z,99.90
2023-05-15T10:47:26.261Z,99.90
2023-05-15T10:52:33.427Z,99.90
2023-05-15T10:57:39.605Z,99.90
2023-05-15T11:02:45.214Z,99.90
2023-05-15T11:08:23.088Z,99.90
2023-05-15T11:13:28.675Z,99.90
2023-05-15T11:18:39.373Z,99.90
2023-05-15T11:23:45.273Z,99.90
2023-05-15T11:28:51.338Z,99.90
2023-05-15T11:33:56.721Z,99.90
2023-05-15T11:39:51.777Z,99.90
2023-05-15T11:44:58.852Z,99.90
2023-05-15T11:50:08.170Z,99.90
2023-05-15T11:55:13.572Z,99.90
2023-05-15T12:06:50.843Z,99.90
2023-05-15T12:11:57.870Z,99.90
2023-05-15T12:17:07.453Z,99.90
2023-05-15T12:22:13.598Z,99.90
2023-05-15T12:27:19.693Z,99.90
2023-05-15T12:32:25.482Z,99.90
2023-05-15T12:37:37.219Z,99.90
2023-05-15T12:42:46.738Z,99.90
2023-05-15T12:47:53.144Z,99.90
2023-05-15T12:53:06.188Z,99.90
2023-05-15T12:58:14.283Z,99.90
2023-05-15T13:03:27.325Z,99.90
2023-05-15T13:08:47.728Z,99.90
2023-05-15T13:14:01.064Z,99.90
2023-05-15T13:19:15.172Z,99.90
2023-05-15T13:29:52.092Z,99.90
2023-05-15T13:35:01.154Z,99.90
2023-05-15T13:40:43.132Z,99.90
2023-05-15T13:45:58.230Z,99.90
2023-05-15T13:56:44.089Z,99.90
2023-05-15T14:02:12.793Z,99.90
2023-05-15T14:07:22.272Z,99.90
2023-05-15T14:12:35.137Z,99.90
2023-05-15T14:17:48.222Z,99.90
2023-05-15T14:22:57.594Z,99.90
2023-05-15T14:28:07.209Z,99.90
2023-05-15T14:33:15.524Z,99.90
2023-05-15T14:38:25.843Z,99.90
2023-05-15T14:43:37.305Z,99.90
2023-05-15T14:48:43.043Z,99.90
2023-05-15T14:53:49.489Z,99.90
2023-05-15T14:58:56.630Z,99.90
2023-05-15T15:04:08.715Z,99.90
2023-05-15T15:09:23.202Z,99.90
2023-05-15T15:14:37.320Z,99.90
2023-05-15T15:19:52.150Z,99.90
2023-05-15T15:25:05.650Z,99.90
2023-05-15T15:30:23.098Z,99.90
2023-05-15T15:35:31.777Z,99.90
2023-05-15T15:40:37.813Z,99.90
2023-05-15T15:45:48.894Z,99.90
2023-05-15T15:50:55.772Z,99.90
2023-05-15T15:56:06.425Z,99.90
2023-05-15T16:01:26.361Z,99.90
2023-05-15T16:06:31.909Z,99.90
2023-05-15T16:11:37.387Z,99.90
2023-05-15T16:16:43.386Z,99.90
2023-05-15T16:21:50.445Z,99.90
2023-05-15T16:26:56.844Z,99.90
2023-05-15T16:32:02.698Z,99.90
2023-05-15T16:37:07.998Z,99.90
2023-05-15T16:42:13.542Z,99.90
2023-05-15T16:47:22.237Z,99.90
2023-05-15T16:52:35.380Z,99.90
2023-05-15T16:57:42.243Z,99.90
2023-05-15T17:02:51.658Z,99.90
2023-05-15T17:08:12.995Z,99.90
2023-05-15T17:13:18.885Z,99.90
2023-05-15T17:18:27.871Z,99.90
2023-05-15T17:23:33.570Z,99.90
2023-05-15T17:28:39.293Z,99.90
2023-05-15T17:33:45.339Z,99.90
2023-05-15T17:38:52.038Z,99.90
2023-05-15T17:43:57.372Z,99.90
2023-05-15T17:49:03.082Z,99.90
2023-05-15T17:54:08.543Z,99.90
2023-05-15T17:59:14.240Z,99.90
2023-05-15T18:04:20.147Z,99.90
2023-05-15T18:09:25.992Z,99.90
2023-05-15T18:14:31.614Z,99.90
2023-05-15T18:19:36.994Z,99.90
2023-05-15T18:24:42.364Z,99.90
2023-05-15T18:29:48.321Z,99.90
2023-05-15T18:34:54.001Z,99.90
2023-05-15T18:40:03.101Z,99.90
2023-05-15T18:45:09.286Z,99.90
2023-05-15T18:50:15.762Z,99.90
2023-05-15T18:55:23.033Z,99.90
2023-05-15T19:00:37.891Z,99.90
2023-05-15T19:05:44.910Z,99.90
2023-05-15T19:11:00.605Z,99.90
2023-05-15T19:16:08.389Z,99.90
2023-05-15T19:21:13.828Z,99.90
2023-05-15T19:26:19.529Z,99.90
2023-05-15T19:31:31.240Z,99.90
2023-05-15T19:36:37.599Z,99.90
2023-05-15T19:41:44.052Z,99.90
2023-05-15T19:46:49.648Z,99.90
2023-05-15T19:52:10.005Z,99.90
2023-05-15T19:57:15.136Z,99.90
2023-05-15T20:02:32.642Z,99.90
2023-05-15T20:07:40.643Z,99.90
2023-05-15T20:12:47.089Z,99.90
2023-05-15T20:17:55.454Z,99.90
2023-05-15T20:23:01.136Z,99.90
2023-05-15T20:28:07.069Z,99.90
2023-05-15T20:33:12.898Z,99.90
2023-05-15T20:38:18.958Z,99.90
2023-05-15T20:43:28.286Z,99.90
2023-05-15T20:48:37.414Z,99.90
2023-05-15T20:53:42.606Z,99.90
2023-05-15T20:58:47.900Z,99.90
2023-05-15T21:03:53.768Z,99.90
2023-05-15T21:08:59.287Z,99.90
2023-05-15T21:14:11.062Z,99.90
2023-05-15T21:19:16.443Z,99.90
2023-05-15T21:24:22.837Z,99.90
2023-05-15T21:29:28.004Z,99.90
2023-05-15T21:34:33.901Z,99.90
2023-05-15T21:39:39.350Z,99.90
2023-05-15T21:44:44.904Z,99.90
2023-05-15T21:49:50.205Z,99.90
2023-05-15T21:54:55.857Z,99.90
2023-05-15T22:00:01.439Z,99.90
2023-05-15T22:05:07.005Z,99.90
2023-05-15T22:10:17.916Z,99.90
2023-05-15T22:15:35.489Z,99.90
2023-05-15T22:20:41.263Z,99.90
2023-05-15T22:25:46.831Z,99.90
2023-05-15T22:30:52.144Z,99.90
2023-05-15T22:35:57.922Z,99.90
2023-05-15T22:41:03.092Z,99.90
2023-05-15T22:46:10.399Z,99.90
2023-05-15T22:51:17.657Z,99.90
2023-05-15T22:56:23.410Z,99.90
2023-05-15T23:01:28.473Z,99.90
2023-05-15T23:06:33.970Z,99.90
2023-05-15T23:11:39.505Z,99.90
2023-05-15T23:16:45.803Z,99.90
2023-05-15T23:21:51.080Z,99.90
2023-05-15T23:26:56.677Z,99.90
2023-05-15T23:32:02.382Z,99.90
2023-05-15T23:37:07.674Z,99.90
2023-05-15T23:42:13.827Z,99.90
2023-05-15T23:47:19.557Z,99.90
2023-05-15T23:52:24.578Z,99.90
2023-05-15T23:57:30.122Z,99.90
